Time;durP1;ratioP1;P1;durP2;ratioP2;P2;SDS_P1;SDS_P2;PMS_P1;PMS_P2;Temp;Humidity;BMP_temperature;BMP_pressure;BME280_temperature;BME280_humidity;BME280_pressure;Samples;Min_cycle;Max_cycle;Signal;HPM_P1;HPM_P2
2023/07/26 00:00:02;;;;;;;1.13;0.20;;;;;;;15.81;100.00;99447.03;5135389;27;20047;-73
2023/07/26 00:02:28;;;;;;;1.48;0.10;;;;;;;15.70;100.00;99434.50;5130284;27;20039;-72
2023/07/26 00:04:53;;;;;;;0.30;0.13;;;;;;;15.64;100.00;99430.06;5136143;27;20083;-72
2023/07/26 00:07:18;;;;;;;0.60;0.10;;;;;;;15.59;100.00;99415.75;5131343;27;20092;-72
2023/07/26 00:09:44;;;;;;;2.05;0.20;;;;;;;15.65;100.00;99410.66;5127794;27;20047;-72
2023/07/26 00:12:09;;;;;;;1.75;0.10;;;;;;;15.72;100.00;99417.53;5127559;27;20039;-72
2023/07/26 00:14:35;;;;;;;2.42;0.20;;;;;;;15.75;100.00;99408.44;5131833;27;20100;-72
2023/07/26 00:17:01;;;;;;;0.28;0.15;;;;;;;15.76;100.00;99417.94;5129066;27;20065;-71
2023/07/26 00:19:27;;;;;;;1.33;0.20;;;;;;;15.92;100.00;99417.53;5130020;27;20034;-72
2023/07/26 00:21:52;;;;;;;2.00;0.17;;;;;;;15.96;100.00;99408.22;5130623;27;20027;-71
2023/07/26 00:24:17;;;;;;;0.47;0.10;;;;;;;15.92;100.00;99399.94;5126237;27;20028;-72
2023/07/26 00:26:43;;;;;;;2.35;0.30;;;;;;;15.75;100.00;99390.88;5126823;27;20035;-72
2023/07/26 00:29:08;;;;;;;0.30;0.10;;;;;;;15.62;100.00;99390.06;5130718;27;20483;-73
2023/07/26 00:31:34;;;;;;;0.45;0.10;;;;;;;15.59;100.00;99391.31;5139929;27;20035;-73
2023/07/26 00:33:59;;;;;;;0.98;0.10;;;;;;;15.57;100.00;99404.63;5134922;27;20027;-72
2023/07/26 00:36:24;;;;;;;2.05;0.10;;;;;;;15.57;100.00;99415.16;5131367;27;20469;-73
2023/07/26 00:38:50;;;;;;;0.63;0.10;;;;;;;15.62;100.00;99416.31;5134414;27;20091;-73
2023/07/26 00:41:15;;;;;;;2.45;0.20;;;;;;;15.62;100.00;99426.81;5139405;27;20385;-72
2023/07/26 00:43:41;;;;;;;1.67;0.20;;;;;;;15.59;100.00;99423.63;5139638;27;20035;-72
2023/07/26 00:46:06;;;;;;;1.20;0.20;;;;;;;15.63;100.00;99420.56;5134426;27;20505;-72
2023/07/26 00:48:33;;;;;;;1.95;0.20;;;;;;;15.73;100.00;99423.59;5127017;27;20383;-72
2023/07/26 00:51:00;;;;;;;0.28;0.10;;;;;;;15.72;100.00;99437.75;5134238;27;20049;-71
2023/07/26 00:53:26;;;;;;;0.50;0.10;;;;;;;15.78;100.00;99436.94;5130376;27;20109;-71
2023/07/26 00:55:53;;;;;;;0.60;0.20;;;;;;;15.77;100.00;99432.69;5131720;27;20146;-71
2023/07/26 00:58:19;;;;;;;0.85;0.10;;;;;;;15.78;100.00;99427.22;5133686;27;20140;-71
2023/07/26 01:00:44;;;;;;;0.63;0.10;;;;;;;15.75;100.00;99432.09;5129754;27;20043;-71
2023/07/26 01:03:10;;;;;;;0.50;0.10;;;;;;;15.77;100.00;99436.13;5107412;27;20035;-71
2023/07/26 01:06:07;;;;;;;0.40;0.10;;;;;;;15.82;100.00;99435.53;5134641;27;20108;-71
2023/07/26 01:08:53;;;;;;;0.30;0.10;;;;;;;15.83;100.00;99424.81;5140608;27;20038;-72
2023/07/26 01:11:40;;;;;;;0.20;0.10;;;;;;;15.90;100.00;99411.66;5130731;27;20031;-71
2023/07/26 01:14:21;;;;;;;0.30;0.10;;;;;;;15.85;100.00;99400.97;5132961;27;20019;-71
2023/07/26 01:16:47;;;;;;;0.55;0.10;;;;;;;15.90;100.00;99388.03;5130785;27;20035;-72
2023/07/26 01:19:12;;;;;;;0.57;0.13;;;;;;;15.87;100.00;99380.56;5135319;27;20058;-70
2023/07/26 01:21:38;;;;;;;0.50;0.10;;;;;;;15.82;100.00;99373.28;5126378;27;20472;-70
2023/07/26 01:24:03;;;;;;;0.50;0.10;;;;;;;15.82;100.00;99365.41;5134220;27;20102;-70
2023/07/26 01:26:29;;;;;;;0.40;0.10;;;;;;;15.78;100.00;99360.78;5134291;27;20031;-70
2023/07/26 01:28:55;;;;;;;2.45;0.10;;;;;;;15.76;100.00;99363.59;5129516;27;20028;-69
2023/07/26 01:31:23;;;;;;;0.20;0.10;;;;;;;15.77;100.00;99357.34;5133725;27;20106;-70
2023/07/26 01:33:52;;;;;;;0.68;0.13;;;;;;;15.88;100.00;99355.91;5133266;27;20034;-70
2023/07/26 01:36:21;;;;;;;1.10;0.10;;;;;;;15.95;100.00;99361.97;5134176;27;20031;-70
2023/07/26 01:38:47;;;;;;;0.60;0.20;;;;;;;15.96;100.00;99360.13;5131334;27;20035;-70
2023/07/26 01:41:14;;;;;;;0.63;0.10;;;;;;;15.87;100.00;99362.97;5125005;27;20493;-69
2023/07/26 01:43:40;;;;;;;0.45;0.10;;;;;;;15.91;100.00;99369.44;5129510;27;20043;-69
2023/07/26 01:46:05;;;;;;;0.38;0.10;;;;;;;15.94;100.00;99376.09;5131582;27;20035;-69
2023/07/26 01:48:30;;;;;;;0.90;0.10;;;;;;;16.09;100.00;99392.41;5133187;27;20071;-69
2023/07/26 01:50:56;;;;;;;0.20;0.00;;;;;;;16.33;100.00;99395.41;5133162;27;20114;-69
2023/07/26 01:53:21;;;;;;;0.43;0.10;;;;;;;16.39;100.00;99391.94;5133579;27;20027;-69
2023/07/26 01:55:47;;;;;;;0.30;0.10;;;;;;;16.37;100.00;99409.75;5135267;27;20117;-69
2023/07/26 01:58:12;;;;;;;0.30;0.10;;;;;;;16.44;100.00;99421.03;5134674;27;20034;-69
2023/07/26 02:00:37;;;;;;;0.60;0.10;;;;;;;16.48;100.00;99430.94;5124911;27;20031;-69
2023/07/26 02:03:03;;;;;;;0.40;0.10;;;;;;;16.51;100.00;99432.34;5125359;27;20054;-69
2023/07/26 02:05:30;;;;;;;0.30;0.10;;;;;;;16.53;100.00;99431.13;5115160;27;20333;-69
2023/07/26 02:07:55;;;;;;;0.43;0.15;;;;;;;16.50;100.00;99434.16;5113493;27;20083;-69
2023/07/26 02:10:21;;;;;;;0.45;0.13;;;;;;;16.41;100.00;99445.13;5133588;27;20102;-69
2023/07/26 02:12:46;;;;;;;0.45;0.10;;;;;;;16.30;100.00;99451.00;5134529;27;20475;-69
2023/07/26 02:15:12;;;;;;;0.32;0.10;;;;;;;16.21;100.00;99469.63;5139564;27;20054;-69
2023/07/26 02:17:38;;;;;;;0.35;0.10;;;;;;;16.26;100.00;99474.25;5129631;27;20031;-69
2023/07/26 02:20:04;;;;;;;2.00;0.20;;;;;;;16.25;100.00;99483.16;5122613;27;20403;-69
2023/07/26 02:22:29;;;;;;;0.52;0.08;;;;;;;16.16;100.00;99482.56;5122397;27;20027;-69
2023/07/26 02:24:55;;;;;;;0.32;0.10;;;;;;;16.15;100.00;99488.81;5130384;27;20035;-69
2023/07/26 02:27:20;;;;;;;0.63;0.10;;;;;;;16.18;100.00;99495.50;5134352;27;20042;-69
2023/07/26 02:29:46;;;;;;;0.65;0.10;;;;;;;16.10;100.00;99491.25;5137920;27;20037;-69
2023/07/26 02:32:11;;;;;;;5.43;1.15;;;;;;;16.20;100.00;99496.91;5128903;27;20023;-69
2023/07/26 02:34:37;;;;;;;3.15;0.20;;;;;;;16.23;100.00;99506.22;5128479;27;20027;-69
2023/07/26 02:37:03;;;;;;;0.20;0.10;;;;;;;16.23;100.00;99511.47;5129441;27;20035;-69
2023/07/26 02:39:29;;;;;;;0.75;0.20;;;;;;;16.22;100.00;99528.25;5132745;27;20034;-69
2023/07/26 02:41:54;;;;;;;3.63;0.10;;;;;;;16.23;100.00;99545.63;5131860;27;20039;-69
2023/07/26 02:44:19;;;;;;;3.63;0.10;;;;;;;16.20;100.00;99544.22;5127456;27;20031;-69
2023/07/26 02:46:45;;;;;;;0.40;0.10;;;;;;;16.22;100.00;99555.34;5128469;27;20037;-69
2023/07/26 02:49:10;;;;;;;0.70;0.10;;;;;;;16.23;100.00;99575.34;5137238;27;20023;-69
2023/07/26 02:51:36;;;;;;;0.30;0.10;;;;;;;16.18;100.00;99585.66;5133927;27;20027;-69
2023/07/26 02:54:01;;;;;;;1.20;0.10;;;;;;;16.23;100.00;99588.47;5124034;27;20109;-69
2023/07/26 02:56:27;;;;;;;0.80;0.10;;;;;;;16.22;100.00;99592.13;5132563;27;20030;-70
2023/07/26 02:58:52;;;;;;;0.50;0.20;;;;;;;16.17;100.00;99576.16;5123344;27;20028;-69
2023/07/26 03:01:17;;;;;;;0.40;0.10;;;;;;;16.13;100.00;99556.53;5132237;27;20038;-69
2023/07/26 03:03:43;;;;;;;0.30;0.10;;;;;;;15.81;100.00;99541.59;5125802;27;20046;-69
2023/07/26 03:06:09;;;;;;;2.55;0.20;;;;;;;15.75;100.00;99524.00;5131718;27;20023;-69
2023/07/26 03:08:34;;;;;;;1.70;0.10;;;;;;;15.70;100.00;99524.59;5131973;27;20510;-69
2023/07/26 03:10:59;;;;;;;1.77;0.10;;;;;;;15.68;100.00;99520.56;5130666;27;20092;-70
2023/07/26 03:13:25;;;;;;;1.00;0.20;;;;;;;15.69;100.00;99498.53;5127818;27;20034;-70
2023/07/26 03:15:52;;;;;;;0.60;0.20;;;;;;;15.79;100.00;99502.38;5137358;27;20035;-70
2023/07/26 03:18:18;;;;;;;0.73;0.30;;;;;;;15.87;100.00;99498.75;5132038;27;20087;-70
2023/07/26 03:20:47;;;;;;;1.17;0.20;;;;;;;15.89;100.00;99479.16;5131224;27;20031;-70
2023/07/26 03:23:13;;;;;;;0.88;0.20;;;;;;;15.73;100.00;99497.13;5124334;27;20036;-70
2023/07/26 03:25:38;;;;;;;3.22;0.20;;;;;;;15.73;100.00;99518.94;5135869;27;20026;-70
2023/07/26 03:28:04;;;;;;;0.40;0.20;;;;;;;15.82;100.00;99528.25;5130348;27;20486;-70
2023/07/26 03:30:29;;;;;;;0.85;0.20;;;;;;;15.88;100.00;99531.91;5128782;27;20043;-70
2023/07/26 03:32:55;;;;;;;4.20;0.30;;;;;;;15.94;100.00;99531.09;5127120;27;20032;-70
2023/07/26 03:35:20;;;;;;;2.38;0.30;;;;;;;15.97;100.00;99516.75;5129016;27;20491;-70
2023/07/26 03:37:46;;;;;;;1.05;0.20;;;;;;;16.00;100.00;99525.03;5131068;27;20578;-69
2023/07/26 03:40:11;;;;;;;4.60;0.30;;;;;;;15.93;100.00;99513.72;5134280;27;20027;-69
2023/07/26 03:42:37;;;;;;;1.33;0.20;;;;;;;15.88;100.00;99522.19;5110583;28;20080;-70
2023/07/26 03:45:02;;;;;;;0.95;0.30;;;;;;;15.91;100.00;99520.97;5128218;27;20027;-69
2023/07/26 03:47:28;;;;;;;1.35;0.20;;;;;;;15.85;100.00;99514.72;5131129;27;20030;-70
2023/07/26 03:49:53;;;;;;;0.75;0.40;;;;;;;15.85;100.00;99500.78;5130514;27;20118;-69
2023/07/26 03:52:18;;;;;;;0.70;0.20;;;;;;;15.77;100.00;99501.78;5108740;27;20091;-70
2023/07/26 03:54:45;;;;;;;0.60;0.20;;;;;;;15.85;100.00;99513.91;5127406;27;20042;-70
2023/07/26 03:57:10;;;;;;;0.65;0.20;;;;;;;15.95;100.00;99534.53;5131526;27;20441;-69
2023/07/26 03:59:36;;;;;;;0.40;0.20;;;;;;;15.95;100.00;99534.53;5128428;27;20060;-69
2023/07/26 04:02:01;;;;;;;0.85;0.20;;;;;;;15.89;100.00;99551.91;5126634;27;20077;-69
2023/07/26 04:04:26;;;;;;;1.42;0.30;;;;;;;15.90;100.00;99545.63;5135504;27;20038;-69
2023/07/26 04:06:52;;;;;;;0.43;0.20;;;;;;;15.87;100.00;99543.41;5130698;27;20019;-69
2023/07/26 04:09:17;;;;;;;0.40;0.15;;;;;;;15.93;100.00;99545.22;5129365;27;20388;-69
2023/07/26 04:11:42;;;;;;;0.73;0.20;;;;;;;15.89;100.00;99554.53;5130693;27;20062;-69
2023/07/26 04:14:08;;;;;;;6.60;0.40;;;;;;;15.91;100.00;99573.53;5114526;27;20023;-69
2023/07/26 04:16:33;;;;;;;0.73;0.20;;;;;;;15.94;100.00;99583.63;5124914;27;20106;-70
2023/07/26 04:18:59;;;;;;;1.10;0.20;;;;;;;15.96;100.00;99576.34;5123847;27;20031;-69
2023/07/26 04:21:24;;;;;;;0.93;0.30;;;;;;;15.93;100.00;99587.25;5131273;27;20023;-69
2023/07/26 04:23:49;;;;;;;0.63;0.20;;;;;;;15.89;100.00;99594.72;5130515;27;20035;-69
2023/07/26 04:26:15;;;;;;;1.45;0.13;;;;;;;15.96;100.00;99601.81;5129991;27;20039;-69
2023/07/26 04:28:40;;;;;;;0.52;0.10;;;;;;;15.99;100.00;99606.69;5129848;27;20039;-69
2023/07/26 04:31:06;;;;;;;1.05;0.10;;;;;;;15.89;100.00;99592.09;5128685;27;20080;-69
2023/07/26 04:33:32;;;;;;;0.20;0.10;;;;;;;15.76;100.00;99586.00;5123866;27;20019;-69
2023/07/26 04:35:57;;;;;;;0.30;0.10;;;;;;;15.87;100.00;99586.25;5122187;27;20036;-69
2023/07/26 04:38:24;;;;;;;1.77;0.10;;;;;;;15.97;100.00;99599.00;5131176;27;20035;-69
2023/07/26 04:40:50;;;;;;;1.08;0.10;;;;;;;16.01;100.00;99596.78;5129472;27;20023;-69
2023/07/26 04:43:21;;;;;;;0.68;0.10;;;;;;;15.92;100.00;99604.03;5111965;28;20478;-69
2023/07/26 04:45:51;;;;;;;0.80;0.15;;;;;;;15.92;100.00;99623.22;5126594;27;20392;-69
2023/07/26 04:48:17;;;;;;;0.40;0.10;;;;;;;15.92;100.00;99619.81;5131086;27;20035;-69
2023/07/26 04:50:43;;;;;;;0.13;0.03;;;;;;;15.93;100.00;99614.34;5121948;27;20032;-69
2023/07/26 04:53:09;;;;;;;2.72;0.10;;;;;;;15.91;100.00;99626.06;5125092;27;20027;-69
2023/07/26 04:55:44;;;;;;;0.40;0.10;;;;;;;15.95;100.00;99621.22;5123520;27;20027;-69
2023/07/26 04:58:09;;;;;;;1.17;0.20;;;;;;;15.87;100.00;99625.66;5131062;27;20109;-69
2023/07/26 05:00:39;;;;;;;0.40;0.10;;;;;;;15.92;100.00;99622.44;5138673;27;20535;-69
2023/07/26 05:03:05;;;;;;;0.75;0.30;;;;;;;15.93;100.00;99640.63;5126041;27;20412;-69
2023/07/26 05:05:31;;;;;;;0.35;0.10;;;;;;;16.01;100.00;99639.63;5133049;27;20034;-68
2023/07/26 05:07:56;;;;;;;0.63;0.10;;;;;;;16.06;100.00;99639.84;5121525;27;20474;-68
2023/07/26 05:10:23;;;;;;;0.52;0.20;;;;;;;16.13;100.00;99643.25;5124358;27;20109;-68
2023/07/26 05:12:48;;;;;;;1.27;0.20;;;;;;;16.20;100.00;99630.94;5125087;27;20077;-69
2023/07/26 05:15:14;;;;;;;1.23;0.10;;;;;;;16.08;100.00;99664.06;5133781;27;20027;-69
2023/07/26 05:17:39;;;;;;;0.55;0.10;;;;;;;16.08;100.00;99664.06;5139698;27;20494;-69
2023/07/26 05:20:05;;;;;;;0.30;0.10;;;;;;;16.16;100.00;99657.81;5133612;27;20083;-69
2023/07/26 05:22:31;;;;;;;0.70;0.10;;;;;;;16.18;100.00;99667.13;5133800;27;20052;-69
2023/07/26 05:24:56;;;;;;;0.40;0.20;;;;;;;16.16;100.00;99678.84;5138000;27;20363;-69
2023/07/26 05:27:22;;;;;;;1.17;0.10;;;;;;;16.16;100.00;99671.75;5133377;27;20038;-69
2023/07/26 05:29:47;;;;;;;0.52;0.10;;;;;;;16.25;100.00;99675.81;5132316;27;20046;-68
2023/07/26 05:32:12;;;;;;;1.67;0.10;;;;;;;16.25;100.00;99680.28;5124584;27;20039;-69
2023/07/26 05:34:38;;;;;;;0.52;0.10;;;;;;;16.35;100.00;99669.38;5115848;27;20126;-69
2023/07/26 05:37:03;;;;;;;0.50;0.20;;;;;;;16.33;100.00;99681.91;5133368;27;20035;-69
2023/07/26 05:39:29;;;;;;;2.00;0.20;;;;;;;16.39;100.00;99675.84;5133980;27;20069;-69
2023/07/26 05:41:55;;;;;;;0.60;0.10;;;;;;;16.61;100.00;99679.88;5123901;27;20031;-69
2023/07/26 05:44:20;;;;;;;0.40;0.10;;;;;;;16.64;100.00;99692.66;5133781;27;20034;-69
2023/07/26 05:46:46;;;;;;;2.53;0.20;;;;;;;16.69;100.00;99690.25;5129979;27;20027;-68
2023/07/26 05:49:11;;;;;;;1.33;0.10;;;;;;;16.77;100.00;99695.28;5133795;27;20118;-68
2023/07/26 05:51:37;;;;;;;2.45;0.20;;;;;;;16.82;100.00;99698.13;5112759;27;20362;-68
2023/07/26 05:54:02;;;;;;;0.40;0.10;;;;;;;16.81;100.00;99704.41;5135444;27;20027;-69
2023/07/26 05:56:27;;;;;;;0.40;0.10;;;;;;;16.85;100.00;99700.34;5114674;27;20076;-68
2023/07/26 05:58:53;;;;;;;0.65;0.10;;;;;;;16.97;100.00;99708.44;5138839;27;20034;-68
2023/07/26 06:01:18;;;;;;;0.40;0.20;;;;;;;17.11;100.00;99723.19;5129874;27;20038;-67
2023/07/26 06:03:45;;;;;;;2.90;0.10;;;;;;;17.20;100.00;99713.25;5132837;27;20042;-69
2023/07/26 06:06:10;;;;;;;0.38;0.10;;;;;;;17.26;100.00;99725.59;5133804;27;20027;-69
2023/07/26 06:08:36;;;;;;;0.45;0.10;;;;;;;17.30;100.00;99726.81;5125818;27;20483;-69
2023/07/26 06:11:01;;;;;;;0.43;0.10;;;;;;;17.33;100.00;99734.28;5131885;27;20043;-69
2023/07/26 06:13:26;;;;;;;2.40;0.10;;;;;;;17.51;100.00;99739.69;5133189;27;20091;-68
2023/07/26 06:15:52;;;;;;;0.47;0.10;;;;;;;17.37;100.00;99742.59;5134565;27;20393;-68
2023/07/26 06:18:17;;;;;;;4.22;0.00;;;;;;;17.46;100.00;99757.97;5131586;27;20475;-68
2023/07/26 06:20:43;;;;;;;0.85;0.10;;;;;;;17.61;100.00;99765.63;5129093;27;20034;-68
2023/07/26 06:23:08;;;;;;;0.50;0.10;;;;;;;17.86;100.00;99758.69;5127819;27;20019;-68
2023/07/26 06:25:34;;;;;;;1.15;0.10;;;;;;;18.19;100.00;99761.16;5124326;27;20434;-68
2023/07/26 06:27:59;;;;;;;0.10;0.00;;;;;;;18.13;100.00;99759.34;5132164;27;20028;-68
2023/07/26 06:30:25;;;;;;;0.20;0.00;;;;;;;18.19;100.00;99762.97;5122620;27;20035;-69
2023/07/26 06:32:50;;;;;;;0.40;0.10;;;;;;;18.18;100.00;99771.91;5114431;27;20055;-69
2023/07/26 06:35:17;;;;;;;0.40;0.10;;;;;;;18.42;100.00;99771.19;5130655;27;20389;-69
2023/07/26 06:37:42;;;;;;;0.20;0.00;;;;;;;18.57;100.00;99776.94;5132836;27;20035;-69
2023/07/26 06:40:08;;;;;;;0.25;0.00;;;;;;;18.67;100.00;99770.44;5133153;27;20387;-69
2023/07/26 06:42:33;;;;;;;1.45;0.00;;;;;;;18.67;100.00;99781.78;5118098;27;20566;-69
2023/07/26 06:44:59;;;;;;;0.20;0.00;;;;;;;18.87;100.00;99792.22;5136751;27;20034;-69
2023/07/26 06:47:24;;;;;;;0.20;0.00;;;;;;;19.10;100.00;99792.41;5125819;27;20019;-69
2023/07/26 06:49:50;;;;;;;0.20;0.00;;;;;;;19.32;100.00;99786.75;5132080;27;20031;-69
2023/07/26 06:52:16;;;;;;;0.05;0.00;;;;;;;19.67;100.00;99797.59;5127527;27;20023;-68
2023/07/26 06:54:42;;;;;;;0.32;0.00;;;;;;;19.82;98.87;99801.50;5130475;27;20340;-69
2023/07/26 06:57:09;;;;;;;0.38;0.03;;;;;;;19.81;96.60;99793.78;5132996;27;20105;-69
2023/07/26 06:59:35;;;;;;;0.15;0.00;;;;;;;19.84;97.41;99801.28;5135207;27;20083;-69
2023/07/26 07:02:00;;;;;;;0.10;0.00;;;;;;;19.84;97.75;99806.56;5132402;27;20044;-69
2023/07/26 07:04:26;;;;;;;0.17;0.00;;;;;;;19.96;96.44;99799.50;5108348;28;20063;-69
2023/07/26 07:06:51;;;;;;;0.10;0.00;;;;;;;20.12;97.25;99793.59;5131702;27;20037;-69
2023/07/26 07:09:17;;;;;;;0.50;0.00;;;;;;;20.12;97.48;99790.97;5131300;27;20035;-69
2023/07/26 07:11:42;;;;;;;0.10;0.00;;;;;;;20.08;96.46;99800.38;5132292;27;20038;-69
2023/07/26 07:14:09;;;;;;;0.20;0.00;;;;;;;20.20;95.50;99803.06;5126532;27;20026;-69
2023/07/26 07:16:34;;;;;;;0.10;0.00;;;;;;;20.28;95.77;99794.84;5131783;27;20484;-69
2023/07/26 07:19:00;;;;;;;0.00;0.00;;;;;;;20.37;96.20;99792.66;5132732;27;20041;-69
2023/07/26 07:21:25;;;;;;;0.20;0.08;;;;;;;20.60;96.27;99790.13;5137196;27;20479;-70
2023/07/26 07:23:50;;;;;;;0.08;0.00;;;;;;;20.79;94.90;99796.16;5119831;27;20102;-69
2023/07/26 07:26:17;;;;;;;0.40;0.00;;;;;;;21.04;92.32;99798.63;5131310;27;20028;-69
2023/07/26 07:28:42;;;;;;;0.10;0.00;;;;;;;21.02;90.98;99787.44;5128525;27;20391;-69
2023/07/26 07:31:08;;;;;;;0.20;0.00;;;;;;;21.12;90.38;99806.22;5130599;27;20027;-69
2023/07/26 07:33:33;;;;;;;0.35;0.00;;;;;;;21.27;88.82;99796.00;5122944;27;20031;-69
2023/07/26 07:35:59;;;;;;;0.30;0.00;;;;;;;21.26;88.86;99807.66;5129630;27;20112;-70
2023/07/26 07:38:24;;;;;;;0.52;0.00;;;;;;;21.38;88.18;99808.44;5130717;27;20035;-70
2023/07/26 07:40:49;;;;;;;0.77;0.00;;;;;;;21.51;88.09;99815.34;5120247;27;20038;-70
2023/07/26 07:43:15;;;;;;;0.20;0.10;;;;;;;21.61;87.40;99815.59;5100676;27;20023;-70
2023/07/26 07:45:41;;;;;;;0.28;0.10;;;;;;;21.54;87.24;99814.91;5121860;27;20028;-70
2023/07/26 07:48:07;;;;;;;0.82;0.00;;;;;;;21.63;87.60;99821.47;5106411;27;20472;-70
2023/07/26 07:50:32;;;;;;;0.30;0.10;;;;;;;21.77;87.32;99827.31;5122871;27;20035;-71
2023/07/26 07:52:58;;;;;;;0.10;0.00;;;;;;;21.91;86.62;99825.22;5118235;27;20422;-70
2023/07/26 07:55:23;;;;;;;0.65;0.00;;;;;;;22.10;86.40;99822.19;5129329;27;20532;-71
2023/07/26 07:57:49;;;;;;;0.40;0.00;;;;;;;22.26;87.57;99825.13;5121977;27;20042;-71
2023/07/26 08:00:14;;;;;;;0.00;0.00;;;;;;;22.23;86.36;99829.06;5129719;27;20042;-71
2023/07/26 08:02:40;;;;;;;0.30;0.00;;;;;;;22.40;85.86;99837.09;5132693;27;20070;-67
2023/07/26 08:05:05;;;;;;;0.10;0.00;;;;;;;22.63;84.53;99831.69;5129402;27;20027;-67
2023/07/26 08:07:31;;;;;;;0.30;0.20;;;;;;;22.81;82.52;99825.38;5122597;28;20027;-68
2023/07/26 08:09:56;;;;;;;0.10;0.00;;;;;;;22.82;82.26;99825.13;5132062;27;20395;-69
2023/07/26 08:12:22;;;;;;;0.20;0.00;;;;;;;22.79;82.05;99840.75;5128426;27;20444;-68
2023/07/26 08:14:49;;;;;;;0.52;0.00;;;;;;;22.86;82.10;99848.56;5128452;27;20107;-69
2023/07/26 08:17:15;;;;;;;0.17;0.00;;;;;;;22.95;82.95;99852.44;5137433;27;20084;-69
2023/07/26 08:19:40;;;;;;;0.98;0.00;;;;;;;23.02;82.58;99848.59;5131486;27;20031;-69
2023/07/26 08:22:06;;;;;;;4.13;0.10;;;;;;;23.19;80.65;99845.91;5130905;27;20027;-69
2023/07/26 08:24:31;;;;;;;0.20;0.10;;;;;;;23.29;80.32;99846.06;5131432;27;20360;-70
2023/07/26 08:26:56;;;;;;;0.32;0.08;;;;;;;23.16;80.14;99851.69;5129221;27;20062;-68
2023/07/26 08:29:22;;;;;;;0.22;0.10;;;;;;;23.26;79.59;99851.06;5132099;27;20114;-68
2023/07/26 08:31:47;;;;;;;0.28;0.05;;;;;;;23.44;79.77;99850.81;5129038;27;20034;-68
2023/07/26 08:34:13;;;;;;;0.20;0.00;;;;;;;23.46;79.04;99860.16;5135433;27;20087;-68
2023/07/26 08:36:38;;;;;;;0.75;0.10;;;;;;;23.36;76.55;99859.19;5125138;27;20121;-68
2023/07/26 08:39:04;;;;;;;0.82;0.00;;;;;;;23.40;77.31;99870.97;5122390;27;20039;-69
2023/07/26 08:41:30;;;;;;;0.20;0.00;;;;;;;23.71;76.59;99864.25;5123432;27;20385;-68
2023/07/26 08:43:59;;;;;;;0.20;0.05;;;;;;;23.75;76.37;99862.72;5123487;27;20510;-69
2023/07/26 08:46:27;;;;;;;1.35;0.10;;;;;;;23.75;77.49;99868.03;5122050;27;20027;-71
2023/07/26 08:48:53;;;;;;;0.32;0.05;;;;;;;23.71;76.93;99872.22;5125395;27;20440;-68
2023/07/26 08:51:20;;;;;;;0.32;0.08;;;;;;;23.68;76.06;99868.19;5127411;27;20511;-69
2023/07/26 08:53:48;;;;;;;0.30;0.00;;;;;;;23.50;74.94;99874.59;5112492;27;20035;-69
2023/07/26 08:56:15;;;;;;;0.10;0.03;;;;;;;23.68;75.38;99872.72;5133591;27;20050;-69
2023/07/26 08:58:40;;;;;;;0.20;0.03;;;;;;;23.96;74.73;99872.59;5120561;27;20560;-69
2023/07/26 09:01:06;;;;;;;0.17;0.00;;;;;;;23.87;73.96;99876.72;5128800;27;20035;-70
2023/07/26 09:03:32;;;;;;;0.10;0.00;;;;;;;24.02;74.02;99871.59;5139149;27;20050;-70
2023/07/26 09:06:08;;;;;;;0.10;0.00;;;;;;;24.13;70.83;99875.97;5129813;27;20034;-69
2023/07/26 09:08:34;;;;;;;0.10;0.00;;;;;;;24.14;73.27;99877.59;5130136;27;20089;-68
2023/07/26 09:11:03;;;;;;;0.10;0.00;;;;;;;24.10;72.97;99876.47;5134103;27;20117;-68
2023/07/26 09:13:29;;;;;;;4.35;1.45;;;;;;;24.05;72.73;99880.94;5138928;27;20527;-71
2023/07/26 09:16:40;;;;;;;0.17;0.00;;;;;;;24.23;72.91;99882.47;5124377;27;20188;-72
2023/07/26 09:19:06;;;;;;;1.20;0.10;;;;;;;24.50;74.53;99887.91;5104782;28;20040;-71
2023/07/26 09:21:34;;;;;;;1.30;0.08;;;;;;;24.55;73.78;99886.09;5104470;28;20047;-72
2023/07/26 09:24:01;;;;;;;2.25;0.10;;;;;;;24.45;73.59;99883.31;5106849;28;20054;-73
2023/07/26 09:26:32;;;;;;;0.32;0.03;;;;;;;24.32;69.43;99889.81;5107227;28;20106;-72
2023/07/26 09:28:57;;;;;;;0.30;0.00;;;;;;;24.20;72.51;99885.63;5107376;28;20059;-73
2023/07/26 09:31:32;;;;;;;1.50;0.00;;;;;;;23.91;64.98;99898.31;5107792;28;20062;-73
2023/07/26 09:34:01;;;;;;;1.40;0.10;;;;;;;24.08;71.60;99891.91;5107514;28;20494;-73
2023/07/26 09:36:40;;;;;;;0.47;0.10;;;;;;;24.46;69.09;99899.03;5107482;28;20510;-72
2023/07/26 09:39:05;;;;;;;0.60;0.00;;;;;;;24.53;71.65;99901.50;5107371;28;20028;-72
2023/07/26 09:41:31;;;;;;;0.10;0.00;;;;;;;24.50;71.12;99896.69;5107782;28;20040;-73
2023/07/26 09:43:59;;;;;;;0.20;0.00;;;;;;;24.66;71.32;99901.09;5107386;28;20036;-72
2023/07/26 09:46:25;;;;;;;0.10;0.00;;;;;;;24.74;70.53;99900.66;5107548;28;20028;-72
2023/07/26 09:48:58;;;;;;;0.25;0.00;;;;;;;24.89;69.82;99907.22;5106851;28;20096;-72
2023/07/26 09:51:27;;;;;;;0.30;0.10;;;;;;;24.99;70.28;99910.00;5107613;28;20027;-72
2023/07/26 09:53:55;;;;;;;0.10;0.00;;;;;;;25.04;69.40;99908.19;5101232;28;20138;-72
2023/07/26 09:56:21;;;;;;;0.22;0.00;;;;;;;24.84;69.99;99909.81;5105896;28;20024;-73
2023/07/26 09:58:50;;;;;;;0.10;0.00;;;;;;;24.86;68.95;99905.84;5105584;28;20036;-72
2023/07/26 10:01:19;;;;;;;0.10;0.00;;;;;;;24.96;68.19;99918.50;5109184;28;20032;-72
2023/07/26 10:03:49;;;;;;;0.10;0.00;;;;;;;24.87;68.29;99907.47;5106726;28;20123;-72
2023/07/26 10:06:17;;;;;;;0.10;0.00;;;;;;;25.15;68.47;99911.72;5105437;28;20350;-72
2023/07/26 10:08:45;;;;;;;0.20;0.00;;;;;;;25.37;68.79;99914.31;5106727;28;20042;-71
2023/07/26 10:11:14;;;;;;;2.10;0.00;;;;;;;25.36;67.10;99910.84;5101447;28;20039;-72
2023/07/26 10:13:42;;;;;;;0.60;0.10;;;;;;;25.10;66.66;99914.34;5107106;28;20055;-72
2023/07/26 10:16:08;;;;;;;0.30;0.08;;;;;;;24.71;66.93;99909.16;5104382;28;20100;-72
2023/07/26 10:18:34;;;;;;;0.10;0.00;;;;;;;24.64;67.85;99913.88;5107014;28;20065;-72
2023/07/26 10:21:04;;;;;;;0.52;0.10;;;;;;;24.45;67.52;99915.25;5106722;28;20121;-72
2023/07/26 10:23:31;;;;;;;0.25;0.10;;;;;;;24.23;70.27;99919.75;5107054;28;20047;-72
2023/07/26 10:26:00;;;;;;;0.10;0.00;;;;;;;23.87;69.54;99924.59;5104217;28;20068;-72
2023/07/26 10:28:26;;;;;;;0.22;0.00;;;;;;;23.68;73.58;99929.38;5091548;28;20028;-72
2023/07/26 10:30:53;;;;;;;0.90;0.00;;;;;;;23.60;72.70;99923.69;5090253;28;20049;-72
2023/07/26 10:33:18;;;;;;;0.30;0.00;;;;;;;23.70;70.33;99921.94;5091988;28;20056;-73
2023/07/26 10:35:46;;;;;;;0.10;0.00;;;;;;;24.00;68.80;99923.44;5092602;28;20067;-72
2023/07/26 10:38:13;;;;;;;0.10;0.00;;;;;;;24.13;68.52;99923.06;5092724;28;20031;-72
2023/07/26 10:40:40;;;;;;;0.20;0.00;;;;;;;24.22;67.46;99926.91;5105696;28;20054;-72
2023/07/26 10:43:20;;;;;;;0.10;0.00;;;;;;;23.88;58.70;99931.53;5109182;28;20390;-72
2023/07/26 10:45:47;;;;;;;0.38;0.00;;;;;;;23.75;67.32;99924.69;5107504;28;20059;-71
2023/07/26 10:48:13;;;;;;;0.45;0.00;;;;;;;23.65;67.81;99923.72;5110063;28;20023;-72
2023/07/26 10:50:39;;;;;;;0.10;0.00;;;;;;;23.61;68.82;99930.59;5102075;27;20110;-71
2023/07/26 10:53:26;;;;;;;0.63;0.00;;;;;;;23.40;64.06;99929.44;5098781;28;20114;-72
2023/07/26 10:55:52;;;;;;;0.52;0.00;;;;;;;23.45;69.52;99919.69;5107305;28;20040;-71
2023/07/26 10:58:17;;;;;;;0.20;0.00;;;;;;;23.50;68.92;99919.78;5109957;28;20083;-72
2023/07/26 11:00:45;;;;;;;0.20;0.00;;;;;;;23.59;67.64;99922.06;5093554;28;20032;-72
2023/07/26 11:03:11;;;;;;;0.10;0.00;;;;;;;23.66;66.95;99917.34;5110022;28;20076;-72
2023/07/26 11:05:39;;;;;;;0.10;0.00;;;;;;;23.84;63.78;99919.75;5108726;28;20032;-71
2023/07/26 11:08:10;;;;;;;0.20;0.00;;;;;;;23.71;65.45;99920.09;5109077;28;20031;-72
2023/07/26 11:10:49;;;;;;;0.20;0.00;;;;;;;23.69;65.82;99920.34;5100719;28;20058;-72
2023/07/26 11:13:17;;;;;;;0.20;0.00;;;;;;;23.62;67.76;99921.59;5098390;28;20019;-72
2023/07/26 11:15:46;;;;;;;0.17;0.10;;;;;;;23.44;67.82;99920.75;5106974;28;20051;-72
2023/07/26 11:18:14;;;;;;;0.13;0.10;;;;;;;23.33;66.88;99929.59;5096092;28;20080;-72
2023/07/26 11:20:44;;;;;;;0.60;0.00;;;;;;;23.33;63.94;99931.44;5108397;28;20432;-73
2023/07/26 11:23:19;;;;;;;0.32;0.10;;;;;;;;;;5090203;28;20028;-72
2023/07/26 11:25:48;;;;;;;0.40;0.00;;;;;;;;;;5081587;28;20028;-72